createdAt,value
2022-11-05T00:10:00.138Z,9.8
2022-11-05T00:20:02.999Z,9.9
2022-11-05T00:30:01.012Z,9.7
2022-11-05T00:40:01.040Z,9.6
2022-11-05T00:50:01.314Z,9.6
2022-11-05T01:00:01.339Z,9.8
2022-11-05T01:10:02.739Z,9.7
2022-11-05T01:20:01.012Z,9.9
2022-11-05T01:30:01.903Z,9.7
2022-11-05T01:40:00.144Z,9.6
2022-11-05T01:50:00.129Z,9.5
2022-11-05T02:00:01.033Z,9.6
2022-11-05T02:10:01.092Z,9.8
2022-11-05T02:20:01.084Z,9.6
2022-11-05T02:30:00.103Z,9.6
2022-11-05T02:40:02.954Z,9.3
2022-11-05T02:50:01.274Z,9.3
2022-11-05T03:00:01.301Z,9.3
2022-11-05T03:10:01.303Z,9.2
2022-11-05T03:20:01.306Z,9.2
2022-11-05T03:30:00.138Z,9.1
2022-11-05T03:40:00.170Z,9.1
2022-11-05T03:50:00.161Z,9.1
2022-11-05T04:00:00.154Z,9.1
2022-11-05T04:10:01.038Z,9.0
2022-11-05T04:20:01.012Z,9.0
2022-11-05T04:30:01.350Z,8.8
2022-11-05T04:40:01.014Z,8.8
2022-11-05T04:50:01.159Z,8.7
2022-11-05T05:00:01.445Z,8.7
2022-11-05T05:10:01.220Z,8.8
2022-11-05T05:20:01.058Z,8.6
2022-11-05T05:30:00.137Z,8.7
2022-11-05T05:40:02.221Z,8.4
2022-11-05T05:50:01.034Z,8.4
2022-11-05T06:00:01.053Z,8.3
2022-11-05T06:10:00.172Z,8.1
2022-11-05T06:20:01.075Z,8.1
2022-11-05T06:30:00.991Z,8.1
2022-11-05T06:40:00.176Z,8.0
2022-11-05T06:50:00.993Z,8.1
2022-11-05T07:00:04.578Z,8.1
2022-11-05T07:10:01.221Z,7.9
2022-11-05T07:20:02.740Z,7.9
2022-11-05T07:30:00.131Z,7.8
2022-11-05T07:40:01.036Z,8.0
2022-11-05T07:50:00.182Z,8.0
2022-11-05T08:10:01.902Z,8.1
2022-11-05T08:20:01.262Z,8.0
2022-11-05T08:30:01.002Z,8.4
2022-11-05T08:50:01.593Z,8.4
2022-11-05T09:00:00.187Z,8.9
2022-11-05T09:10:01.032Z,9.7
2022-11-05T09:20:01.054Z,9.8
2022-11-05T09:30:00.982Z,9.9
2022-11-05T09:40:01.089Z,10.2
2022-11-05T09:50:00.134Z,10.5
2022-11-05T10:00:01.240Z,10.4
2022-11-05T10:10:00.118Z,12.8
2022-11-05T10:20:00.992Z,14.4
2022-11-05T10:30:00.981Z,12.7
2022-11-05T10:40:01.605Z,13.3
2022-11-05T10:50:00.945Z,14.5
2022-11-05T11:00:00.198Z,14.3
2022-11-05T11:10:01.013Z,15.5
2022-11-05T11:20:00.137Z,14.7
2022-11-05T11:30:01.036Z,16.4
2022-11-05T11:40:01.025Z,15.3
2022-11-05T11:50:00.111Z,14.7
2022-11-05T12:00:08.600Z,13.3
2022-11-05T12:10:00.131Z,14.9
2022-11-05T12:20:00.188Z,15.1
2022-11-05T12:30:00.971Z,14.4
2022-11-05T12:40:01.219Z,13.8
2022-11-05T12:50:01.068Z,14.9
2022-11-05T13:00:00.148Z,16.2
2022-11-05T13:10:01.517Z,14.3
2022-11-05T13:30:01.062Z,13.7
2022-11-05T13:40:00.176Z,13.7
2022-11-05T13:50:01.022Z,13.3
2022-11-05T14:00:01.246Z,14.6
2022-11-05T14:10:00.996Z,14.7
2022-11-05T14:20:02.646Z,14.5
2022-11-05T14:30:00.167Z,15.6
2022-11-05T14:40:02.000Z,14.9
2022-11-05T14:50:01.352Z,13.0
2022-11-05T15:00:01.382Z,12.2
2022-11-05T15:10:04.406Z,12.1
2022-11-05T15:20:00.170Z,12.0
2022-11-05T15:30:00.159Z,11.9
2022-11-05T15:50:01.591Z,10.9
2022-11-05T16:00:01.134Z,10.6
2022-11-05T16:10:00.135Z,10.7
2022-11-05T16:20:00.275Z,10.6
2022-11-05T16:30:01.323Z,10.3
2022-11-05T16:40:00.260Z,10.1
2022-11-05T16:50:01.274Z,9.9
2022-11-05T17:00:03.884Z,9.8
2022-11-05T17:10:01.322Z,9.9
2022-11-05T17:20:01.094Z,9.7
2022-11-05T17:30:01.153Z,9.6
2022-11-05T17:40:01.022Z,9.6
2022-11-05T17:50:01.050Z,9.3
2022-11-05T18:00:00.187Z,9.2
2022-11-05T18:10:01.265Z,9.0
2022-11-05T18:20:01.150Z,9.0
2022-11-05T18:30:01.007Z,8.8
2022-11-05T18:40:01.289Z,8.7
2022-11-05T18:50:00.983Z,8.5
2022-11-05T19:00:01.298Z,8.3
2022-11-05T19:10:01.259Z,8.2
2022-11-05T19:20:01.103Z,8.0
2022-11-05T19:30:02.059Z,7.9
2022-11-05T19:40:01.473Z,7.8
2022-11-05T19:50:01.042Z,7.6
2022-11-05T20:00:01.231Z,7.7
2022-11-05T20:10:01.164Z,7.4
2022-11-05T20:30:00.189Z,7.2
2022-11-05T20:50:01.951Z,7.2
2022-11-05T21:00:01.059Z,6.9
2022-11-05T21:10:01.035Z,7.0
2022-11-05T21:20:01.046Z,6.9
2022-11-05T21:30:01.372Z,6.8
2022-11-05T21:50:01.099Z,6.7
2022-11-05T22:00:01.151Z,6.6
2022-11-05T22:10:01.676Z,6.6
2022-11-05T22:20:01.888Z,6.5
2022-11-05T22:30:01.046Z,6.6
2022-11-05T22:40:01.037Z,6.4
2022-11-05T22:50:00.194Z,6.6
2022-11-05T23:00:01.265Z,6.6
2022-11-05T23:10:01.051Z,6.7
2022-11-05T23:20:01.484Z,6.6
2022-11-05T23:30:01.072Z,6.3
2022-11-05T23:40:01.297Z,6.5
2022-11-05T23:50:00.145Z,6.6
